Time;durP1;ratioP1;P1;durP2;ratioP2;P2;SDS_P1;SDS_P2;PMS_P1;PMS_P2;Temp;Humidity;BMP_temperature;BMP_pressure;BME280_temperature;BME280_humidity;BME280_pressure;Samples;Min_cycle;Max_cycle;Signal;HPM_P1;HPM_P2
2022/04/15 00:01:37;;;;;;;4.72;3.20;;;;;;;;;;5031402;28;20417;-68
2022/04/15 00:04:03;;;;;;;4.15;3.03;;;;;;;;;;5015022;28;20097;-69
2022/04/15 00:06:30;;;;;;;5.80;2.95;;;;;;;;;;5014930;28;20140;-69
2022/04/15 00:08:56;;;;;;;6.05;3.30;;;;;;;;;;5014676;28;20046;-68
2022/04/15 00:11:22;;;;;;;4.75;2.85;;;;;;;;;;5016169;28;20050;-69
2022/04/15 00:13:48;;;;;;;4.75;3.13;;;;;;;;;;5034183;28;20091;-68
2022/04/15 00:16:14;;;;;;;5.20;2.80;;;;;;;;;;5032243;28;20496;-69
2022/04/15 00:18:41;;;;;;;5.60;2.90;;;;;;;;;;5014823;28;20591;-68
2022/04/15 00:21:07;;;;;;;4.70;3.13;;;;;;;;;;5022310;28;20049;-69
2022/04/15 00:23:34;;;;;;;5.22;2.80;;;;;;;;;;5034526;28;20084;-69
2022/04/15 00:26:00;;;;;;;4.68;3.03;;;;;;;;;;5016569;28;20053;-69
2022/04/15 00:28:26;;;;;;;4.97;3.00;;;;;;;;;;5034239;28;20045;-69
2022/04/15 00:30:53;;;;;;;4.28;2.90;;;;;;;;;;5034227;28;20045;-69
2022/04/15 00:33:19;;;;;;;5.28;2.88;;;;;;;;;;5033519;28;20496;-68
2022/04/15 00:35:45;;;;;;;5.28;3.25;;;;;;;;;;5023231;28;20037;-68
2022/04/15 00:38:11;;;;;;;3.53;2.78;;;;;;;;;;5013583;28;20134;-69
2022/04/15 00:40:37;;;;;;;4.93;2.88;;;;;;;;;;5014772;28;20076;-69
2022/04/15 00:43:03;;;;;;;5.57;3.20;;;;;;;;;;5014388;28;20041;-69
2022/04/15 00:45:29;;;;;;;4.45;2.55;;;;;;;;;;5014188;28;20050;-68
2022/04/15 00:47:55;;;;;;;4.70;3.00;;;;;;;;;;5028268;28;20132;-69
2022/04/15 00:50:22;;;;;;;3.78;2.63;;;;;;;;;;5012205;28;20130;-68
2022/04/15 00:52:50;;;;;;;5.00;2.97;;;;;;;;;;5014158;28;20045;-68
2022/04/15 00:55:17;;;;;;;4.03;3.00;;;;;;;;;;5014109;28;20180;-69
2022/04/15 00:57:44;;;;;;;3.70;2.67;;;;;;;;;;5023279;28;20054;-68
2022/04/15 01:00:12;;;;;;;3.88;2.70;;;;;;;;;;5014016;28;20048;-68
2022/04/15 01:02:39;;;;;;;5.07;2.83;;;;;;;;;;5027592;28;20049;-68
2022/04/15 01:05:07;;;;;;;4.63;2.90;;;;;;;;;;5031483;28;20057;-69
2022/04/15 01:07:37;;;;;;;4.50;2.67;;;;;;;;;;5033683;28;20128;-68
2022/04/15 01:10:08;;;;;;;4.00;2.75;;;;;;;;;;5033650;28;20041;-68
2022/04/15 01:12:35;;;;;;;5.20;2.88;;;;;;;;;;5018536;28;20521;-68
2022/04/15 01:15:01;;;;;;;5.32;2.85;;;;;;;;;;5033415;28;20042;-68
2022/04/15 01:17:33;;;;;;;4.18;2.97;;;;;;;;;;5033037;28;20128;-69
2022/04/15 01:19:59;;;;;;;5.65;2.90;;;;;;;;;;5033225;28;20050;-69
2022/04/15 01:22:29;;;;;;;3.88;2.80;;;;;;;;;;5032088;28;20049;-69
2022/04/15 01:24:55;;;;;;;4.35;2.70;;;;;;;;;;5016574;28;20532;-69
2022/04/15 01:27:27;;;;;;;3.42;2.45;;;;;;;;;;5013469;28;20046;-69
2022/04/15 01:29:53;;;;;;;3.75;2.80;;;;;;;;;;5013206;28;20382;-69
2022/04/15 01:32:19;;;;;;;3.40;2.67;;;;;;;;;;5013665;28;20103;-69
2022/04/15 01:34:45;;;;;;;3.83;2.80;;;;;;;;;;5019562;28;20049;-68
2022/04/15 01:37:14;;;;;;;4.90;3.00;;;;;;;;;;5033180;28;20041;-68
2022/04/15 01:39:40;;;;;;;3.65;2.50;;;;;;;;;;5024999;28;20045;-69
2022/04/15 01:42:10;;;;;;;3.63;2.60;;;;;;;;;;5032420;28;20048;-68
2022/04/15 01:44:37;;;;;;;5.57;2.88;;;;;;;;;;5032942;28;20045;-69
2022/04/15 01:47:03;;;;;;;4.72;2.70;;;;;;;;;;5033123;28;20124;-69
2022/04/15 01:49:29;;;;;;;4.32;2.80;;;;;;;;;;5028225;28;20169;-69
2022/04/15 01:51:55;;;;;;;4.50;2.75;;;;;;;;;;5014297;28;20104;-69
2022/04/15 01:54:21;;;;;;;4.03;2.70;;;;;;;;;;5015084;28;20045;-68
2022/04/15 01:56:47;;;;;;;3.65;2.67;;;;;;;;;;5011563;28;20053;-69
2022/04/15 01:59:13;;;;;;;3.40;2.53;;;;;;;;;;5013017;28;20058;-69
2022/04/15 02:01:39;;;;;;;3.72;2.55;;;;;;;;;;5013205;28;20100;-69
2022/04/15 02:04:05;;;;;;;4.63;2.88;;;;;;;;;;5013386;28;20038;-69
2022/04/15 02:06:31;;;;;;;3.75;2.78;;;;;;;;;;5013194;28;20509;-69
2022/04/15 02:08:57;;;;;;;3.58;2.72;;;;;;;;;;5033415;28;20083;-69
2022/04/15 02:11:23;;;;;;;3.97;2.75;;;;;;;;;;5035502;28;20455;-68
2022/04/15 02:13:49;;;;;;;4.82;2.65;;;;;;;;;;5015115;28;20053;-69
2022/04/15 02:16:16;;;;;;;4.07;2.70;;;;;;;;;;5017052;28;20046;-69
2022/04/15 02:18:42;;;;;;;3.85;2.55;;;;;;;;;;5017077;28;20124;-69
2022/04/15 02:21:08;;;;;;;3.75;2.60;;;;;;;;;;5035395;28;20144;-68
2022/04/15 02:23:34;;;;;;;3.53;2.40;;;;;;;;;;5036677;28;20038;-68
2022/04/15 02:26:00;;;;;;;4.00;2.85;;;;;;;;;;5021447;28;20038;-69
2022/04/15 02:28:26;;;;;;;4.47;2.50;;;;;;;;;;5016508;28;20108;-69
2022/04/15 02:30:52;;;;;;;4.13;2.60;;;;;;;;;;5028033;28;20576;-68
2022/04/15 02:33:19;;;;;;;3.85;2.58;;;;;;;;;;5036578;28;20091;-69
2022/04/15 02:35:45;;;;;;;4.68;2.83;;;;;;;;;;5018927;28;20046;-69
2022/04/15 02:38:11;;;;;;;4.20;2.70;;;;;;;;;;5024458;28;20550;-69
2022/04/15 02:40:38;;;;;;;3.17;2.80;;;;;;;;;;5020902;28;20564;-69
2022/04/15 02:43:04;;;;;;;3.75;2.47;;;;;;;;;;5024145;28;20405;-69
2022/04/15 02:45:30;;;;;;;2.90;2.38;;;;;;;;;;5016686;28;20069;-69
2022/04/15 02:47:56;;;;;;;4.00;2.90;;;;;;;;;;5016336;28;20081;-69
2022/04/15 02:50:22;;;;;;;4.22;2.70;;;;;;;;;;5016386;28;20085;-69
2022/04/15 02:52:49;;;;;;;3.20;2.70;;;;;;;;;;5016375;28;20054;-69
2022/04/15 02:55:15;;;;;;;3.60;2.65;;;;;;;;;;5023892;28;20124;-69
2022/04/15 02:57:41;;;;;;;3.63;2.50;;;;;;;;;;5028351;28;20200;-68
2022/04/15 03:00:08;;;;;;;4.13;2.63;;;;;;;;;;5029151;28;20075;-69
2022/04/15 03:02:34;;;;;;;3.92;3.00;;;;;;;;;;5035559;28;20045;-69
2022/04/15 03:05:01;;;;;;;3.85;2.60;;;;;;;;;;5035740;28;20523;-68
2022/04/15 03:07:27;;;;;;;3.53;2.45;;;;;;;;;;5001819;28;20049;-69
2022/04/15 03:09:53;;;;;;;4.20;2.50;;;;;;;;;;5034332;28;20041;-69
2022/04/15 03:12:19;;;;;;;3.70;2.63;;;;;;;;;;5024580;28;20121;-68
2022/04/15 03:14:45;;;;;;;3.60;2.60;;;;;;;;;;5035796;28;20056;-69
2022/04/15 03:17:12;;;;;;;3.92;2.70;;;;;;;;;;5035679;28;20042;-68
2022/04/15 03:19:38;;;;;;;3.95;2.80;;;;;;;;;;5035069;28;20063;-67
2022/04/15 03:22:05;;;;;;;3.40;2.50;;;;;;;;;;5035522;28;20042;-69
2022/04/15 03:24:31;;;;;;;3.45;2.58;;;;;;;;;;5035143;28;20041;-69
2022/04/15 03:26:57;;;;;;;3.22;2.60;;;;;;;;;;5035363;28;20047;-69
2022/04/15 03:29:23;;;;;;;3.00;2.58;;;;;;;;;;5035563;28;20038;-69
2022/04/15 03:31:50;;;;;;;3.95;2.65;;;;;;;;;;5016634;28;20563;-68
2022/04/15 03:34:16;;;;;;;4.28;2.70;;;;;;;;;;5015531;28;20046;-69
2022/04/15 03:36:42;;;;;;;3.40;2.70;;;;;;;;;;5020370;28;20046;-69
2022/04/15 03:39:08;;;;;;;4.22;2.65;;;;;;;;;;5034444;28;20129;-69
2022/04/15 03:41:34;;;;;;;3.50;2.90;;;;;;;;;;5028203;28;20124;-68
2022/04/15 03:44:01;;;;;;;4.32;2.90;;;;;;;;;;5034858;28;20045;-68
2022/04/15 03:46:27;;;;;;;4.22;2.80;;;;;;;;;;5035341;28;20469;-69
2022/04/15 03:48:53;;;;;;;3.97;2.63;;;;;;;;;;5035051;28;20098;-69
2022/04/15 03:51:19;;;;;;;3.45;2.90;;;;;;;;;;5034951;28;20404;-69
2022/04/15 03:53:45;;;;;;;4.25;2.80;;;;;;;;;;5034653;28;20037;-69
2022/04/15 03:56:12;;;;;;;3.20;2.67;;;;;;;;;;5034917;28;20132;-69
2022/04/15 03:58:38;;;;;;;3.47;2.78;;;;;;;;;;5034655;28;20213;-69
2022/04/15 04:01:04;;;;;;;3.35;2.58;;;;;;;;;;5034949;28;20063;-69
2022/04/15 04:03:30;;;;;;;3.55;2.78;;;;;;;;;;5034854;28;20488;-69
2022/04/15 04:05:56;;;;;;;4.45;2.90;;;;;;;;;;5034438;28;20053;-69
2022/04/15 04:08:22;;;;;;;3.80;2.70;;;;;;;;;;5014309;28;20046;-69
2022/04/15 04:10:48;;;;;;;3.15;2.75;;;;;;;;;;5031884;28;20055;-68
2022/04/15 04:13:14;;;;;;;3.45;2.80;;;;;;;;;;5020270;28;20128;-69
2022/04/15 04:15:40;;;;;;;3.95;2.92;;;;;;;;;;5013411;28;20050;-69
2022/04/15 04:18:06;;;;;;;3.60;2.90;;;;;;;;;;5017280;28;20111;-69
2022/04/15 04:20:32;;;;;;;3.33;2.90;;;;;;;;;;5015775;28;20049;-69
2022/04/15 04:22:58;;;;;;;3.85;2.75;;;;;;;;;;5014492;28;20049;-69
2022/04/15 04:25:24;;;;;;;3.67;3.00;;;;;;;;;;5014812;28;20049;-68
2022/04/15 04:27:50;;;;;;;3.38;2.70;;;;;;;;;;5014669;28;20096;-68
2022/04/15 04:30:17;;;;;;;3.28;2.97;;;;;;;;;;5015023;28;20041;-69
2022/04/15 04:32:49;;;;;;;4.72;3.03;;;;;;;;;;5017968;28;20118;-69
2022/04/15 04:35:17;;;;;;;3.50;2.90;;;;;;;;;;5033607;28;20094;-69
2022/04/15 04:37:44;;;;;;;3.70;2.78;;;;;;;;;;5032736;28;20053;-69
2022/04/15 04:40:11;;;;;;;4.53;3.00;;;;;;;;;;5025747;28;20088;-69
2022/04/15 04:42:37;;;;;;;3.30;3.00;;;;;;;;;;5034044;28;20044;-69
2022/04/15 04:45:03;;;;;;;3.47;2.92;;;;;;;;;;5033970;28;20144;-69
2022/04/15 04:47:29;;;;;;;3.33;2.70;;;;;;;;;;5016417;28;20045;-69
2022/04/15 04:49:56;;;;;;;2.65;2.33;;;;;;;;;;5033543;28;20045;-69
2022/04/15 04:52:23;;;;;;;3.97;2.75;;;;;;;;;;5033503;28;20041;-69
2022/04/15 04:54:49;;;;;;;3.42;2.70;;;;;;;;;;5014207;28;20081;-68
2022/04/15 04:57:15;;;;;;;3.22;2.40;;;;;;;;;;5014098;28;20133;-69
2022/04/15 04:59:41;;;;;;;2.92;2.53;;;;;;;;;;5013844;28;20081;-68
2022/04/15 05:02:10;;;;;;;3.35;2.53;;;;;;;;;;5029529;28;20041;-68
2022/04/15 05:04:36;;;;;;;3.00;2.40;;;;;;;;;;5032135;28;20121;-69
2022/04/15 05:07:02;;;;;;;2.47;2.28;;;;;;;;;;5033599;28;20041;-69
2022/04/15 05:09:28;;;;;;;3.38;2.63;;;;;;;;;;5032630;28;20037;-69
2022/04/15 05:11:55;;;;;;;3.28;2.35;;;;;;;;;;5033282;28;20463;-69
2022/04/15 05:14:21;;;;;;;3.05;2.40;;;;;;;;;;5033441;28;20049;-68
2022/04/15 05:16:47;;;;;;;3.30;2.40;;;;;;;;;;5033331;28;20045;-68
2022/04/15 05:19:13;;;;;;;2.60;2.10;;;;;;;;;;5032934;28;20091;-69
2022/04/15 05:21:39;;;;;;;2.97;2.40;;;;;;;;;;5033473;28;20111;-69
2022/04/15 05:24:09;;;;;;;2.88;2.58;;;;;;;;;;5022267;28;20050;-69
2022/04/15 05:26:35;;;;;;;2.72;2.40;;;;;;;;;;5013590;28;20046;-68
2022/04/15 05:29:02;;;;;;;3.03;2.60;;;;;;;;;;5020232;28;20037;-68
2022/04/15 05:31:28;;;;;;;3.42;3.05;;;;;;;;;;5033059;28;20041;-68
2022/04/15 05:33:54;;;;;;;4.88;3.95;;;;;;;;;;5032416;28;20053;-69
2022/04/15 05:36:20;;;;;;;4.53;4.13;;;;;;;;;;5033103;28;20042;-68
2022/04/15 05:38:46;;;;;;;4.45;4.05;;;;;;;;;;5016621;28;20042;-68
2022/04/15 05:41:12;;;;;;;5.30;4.82;;;;;;;;;;5013695;28;20046;-69
2022/04/15 05:43:38;;;;;;;5.13;4.72;;;;;;;;;;5013391;28;20125;-68
2022/04/15 05:46:04;;;;;;;5.15;4.65;;;;;;;;;;5014097;28;20089;-69
2022/04/15 05:48:30;;;;;;;5.30;4.80;;;;;;;;;;5014779;28;20048;-68
2022/04/15 05:50:58;;;;;;;4.90;4.50;;;;;;;;;;5032523;28;20053;-68
2022/04/15 05:53:24;;;;;;;4.90;4.40;;;;;;;;;;5032210;28;20499;-69
2022/04/15 05:55:50;;;;;;;4.95;4.55;;;;;;;;;;5015936;28;20058;-69
2022/04/15 05:58:16;;;;;;;5.10;4.60;;;;;;;;;;5030138;28;20050;-69
2022/04/15 06:00:42;;;;;;;4.45;3.95;;;;;;;;;;5032704;28;20104;-68
2022/04/15 06:03:08;;;;;;;4.78;4.38;;;;;;;;;;5032331;28;20049;-69
2022/04/15 06:05:34;;;;;;;5.70;5.20;;;;;;;;;;5031296;28;20463;-69
2022/04/15 06:08:00;;;;;;;6.22;5.63;;;;;;;;;;5021818;28;20045;-68
2022/04/15 06:10:26;;;;;;;4.88;4.38;;;;;;;;;;5028573;28;20404;-68
2022/04/15 06:12:57;;;;;;;4.85;4.53;;;;;;;;;;5013038;28;20136;-68
2022/04/15 06:15:27;;;;;;;5.32;4.82;;;;;;;;;;5012915;28;20057;-68
2022/04/15 06:17:53;;;;;;;4.90;4.40;;;;;;;;;;5013088;28;20470;-69
2022/04/15 06:20:19;;;;;;;4.20;3.90;;;;;;;;;;5014277;28;20137;-69
2022/04/15 06:22:45;;;;;;;4.10;3.80;;;;;;;;;;5022971;28;20045;-68
2022/04/15 06:25:12;;;;;;;4.30;3.90;;;;;;;;;;5032217;28;20046;-67
2022/04/15 06:27:38;;;;;;;4.28;3.88;;;;;;;;;;5032581;28;20046;-68
2022/04/15 06:30:05;;;;;;;4.15;3.72;;;;;;;;;;5032688;28;20049;-68
2022/04/15 06:32:32;;;;;;;4.00;3.60;;;;;;;;;;5032845;28;20053;-68
2022/04/15 06:34:58;;;;;;;3.88;3.50;;;;;;;;;;5026444;28;20076;-68
2022/04/15 06:37:24;;;;;;;3.72;3.35;;;;;;;;;;5032563;28;20045;-68
2022/04/15 06:39:52;;;;;;;3.97;3.58;;;;;;;;;;5032744;28;20435;-70
2022/04/15 06:42:25;;;;;;;4.25;3.40;;;;;;;;;;5032088;28;20045;-67
2022/04/15 06:44:51;;;;;;;4.95;3.45;;;;;;;;;;5032991;28;20053;-68
2022/04/15 06:47:18;;;;;;;4.97;3.60;;;;;;;;;;5032505;28;20041;-69
2022/04/15 06:49:45;;;;;;;4.13;3.60;;;;;;;;;;5028565;28;20038;-67
2022/04/15 06:52:11;;;;;;;3.83;3.40;;;;;;;;;;5012593;28;20173;-67
2022/04/15 06:54:37;;;;;;;3.60;3.13;;;;;;;;;;5031740;28;20405;-68
2022/04/15 06:57:03;;;;;;;4.43;3.22;;;;;;;;;;5035558;28;20505;-66
2022/04/15 06:59:29;;;;;;;3.42;3.05;;;;;;;;;;5035899;28;20458;-67
2022/04/15 07:01:56;;;;;;;4.18;3.78;;;;;;;;;;5000876;28;20552;-67
2022/04/15 07:04:23;;;;;;;4.18;3.17;;;;;;;;;;5029669;28;20045;-69
2022/04/15 07:06:49;;;;;;;3.40;3.10;;;;;;;;;;5015132;28;20060;-68
2022/04/15 07:09:15;;;;;;;3.53;3.10;;;;;;;;;;5002599;28;20099;-70
2022/04/15 07:11:41;;;;;;;5.00;3.17;;;;;;;;;;5015148;28;20597;-68
2022/04/15 07:14:07;;;;;;;3.83;2.90;;;;;;;;;;5016252;28;20153;-70
2022/04/15 07:16:34;;;;;;;3.67;3.25;;;;;;;;;;5015090;28;20107;-72
2022/04/15 07:19:04;;;;;;;4.55;3.05;;;;;;;;;;5016003;28;20056;-69
2022/04/15 07:21:30;;;;;;;16.50;4.57;;;;;;;;;;4998168;28;20046;-70
2022/04/15 07:23:56;;;;;;;4.65;2.95;;;;;;;;;;5015526;28;20081;-70
2022/04/15 07:26:22;;;;;;;4.28;2.83;;;;;;;;;;5015171;28;20143;-69
2022/04/15 07:28:48;;;;;;;3.55;2.97;;;;;;;;;;5014701;28;20283;-69
2022/04/15 07:31:14;;;;;;;5.78;3.10;;;;;;;;;;5015502;28;20482;-69
2022/04/15 07:33:40;;;;;;;4.28;2.92;;;;;;;;;;5022940;28;20042;-70
2022/04/15 07:36:31;;;;;;;4.82;2.88;;;;;;;;;;5033056;28;20041;-69
2022/04/15 07:38:52;;;;;;;;;;;;;;;;;;5026828;28;20503;-69
2022/04/15 07:41:18;;;;;;;3.47;2.60;;;;;;;;;;5014781;28;19925;-70
2022/04/15 07:43:50;;;;;;;6.70;4.47;;;;;;;;;;5018881;28;20046;-69
2022/04/15 07:46:17;;;;;;;5.88;3.42;;;;;;;;;;5035255;28;20049;-68
2022/04/15 07:48:43;;;;;;;6.53;3.40;;;;;;;;;;5016778;28;20049;-69
2022/04/15 07:51:09;;;;;;;5.20;3.25;;;;;;;;;;5020545;28;20045;-68
2022/04/15 07:53:35;;;;;;;6.47;3.42;;;;;;;;;;5024489;28;20026;-70
2022/04/15 07:56:01;;;;;;;5.88;3.35;;;;;;;;;;5023105;28;20076;-68
2022/04/15 07:58:28;;;;;;;7.85;3.40;;;;;;;;;;5029000;28;20101;-67
2022/04/15 08:00:54;;;;;;;6.35;2.80;;;;;;;;;;5032021;28;20049;-69
2022/04/15 08:03:20;;;;;;;11.48;4.32;;;;;;;;;;5021708;28;20050;-69
2022/04/15 08:05:47;;;;;;;12.52;4.03;;;;;;;;;;5020270;28;20100;-69
2022/04/15 08:08:13;;;;;;;12.95;3.60;;;;;;;;;;5021533;28;20097;-72
2022/04/15 08:10:40;;;;;;;12.82;3.58;;;;;;;;;;5032787;28;20080;-72
2022/04/15 08:13:06;;;;;;;11.27;3.75;;;;;;;;;;5028465;28;20049;-70
2022/04/15 08:15:32;;;;;;;9.55;3.45;;;;;;;;;;5015151;28;20132;-72
2022/04/15 08:17:58;;;;;;;9.95;3.25;;;;;;;;;;5013242;28;21383;-71
2022/04/15 08:20:24;;;;;;;9.05;2.90;;;;;;;;;;5014658;28;20068;-72
2022/04/15 08:22:50;;;;;;;8.40;2.97;;;;;;;;;;5014650;28;20042;-72
2022/04/15 08:25:16;;;;;;;6.53;2.90;;;;;;;;;;5016489;28;20045;-71
2022/04/15 08:27:42;;;;;;;7.68;3.40;;;;;;;;;;5014703;28;20050;-71
2022/04/15 08:30:08;;;;;;;6.35;2.65;;;;;;;;;;5014666;28;20111;-71
2022/04/15 08:32:34;;;;;;;9.77;3.30;;;;;;;;;;5012604;28;20038;-72
2022/04/15 08:35:01;;;;;;;6.20;3.05;;;;;;;;;;5014082;28;20045;-72
2022/04/15 08:37:27;;;;;;;6.45;2.80;;;;;;;;;;5011380;28;20129;-72
2022/04/15 08:39:54;;;;;;;9.82;2.65;;;;;;;;;;5014432;28;20120;-72
2022/04/15 08:42:23;;;;;;;6.78;2.80;;;;;;;;;;5014398;28;20461;-71
2022/04/15 08:44:52;;;;;;;11.00;2.90;;;;;;;;;;5014022;28;20050;-71
2022/04/15 08:47:19;;;;;;;6.30;2.60;;;;;;;;;;5015241;28;20045;-71
2022/04/15 08:49:45;;;;;;;8.18;2.63;;;;;;;;;;5017036;28;20034;-72
2022/04/15 08:52:13;;;;;;;6.60;2.65;;;;;;;;;;5015950;28;20125;-71
2022/04/15 08:54:38;;;;;;;8.20;2.80;;;;;;;;;;5014517;28;20046;-71
2022/04/15 08:57:05;;;;;;;11.23;3.30;;;;;;;;;;5020793;28;20053;-70
2022/04/15 08:59:31;;;;;;;6.55;2.67;;;;;;;;;;5038980;28;20034;-72
2022/04/15 09:01:57;;;;;;;6.00;2.70;;;;;;;;;;5039051;28;20030;-71
2022/04/15 09:04:24;;;;;;;7.45;2.70;;;;;;;;;;5037840;28;20045;-72
2022/04/15 09:06:55;;;;;;;8.23;3.20;;;;;;;;;;5037634;28;20034;-71
2022/04/15 09:09:24;;;;;;;7.68;2.72;;;;;;;;;;5038710;28;20033;-72
2022/04/15 09:11:51;;;;;;;8.32;2.90;;;;;;;;;;5038889;28;20041;-72
2022/04/15 09:14:17;;;;;;;6.72;2.60;;;;;;;;;;5038387;28;20061;-72
2022/04/15 09:16:44;;;;;;;4.82;2.67;;;;;;;;;;5038569;28;20037;-72
2022/04/15 09:19:11;;;;;;;8.80;2.92;;;;;;;;;;5054325;28;20041;-72
2022/04/15 09:21:37;;;;;;;11.98;3.38;;;;;;;;;;5038826;28;20101;-72
2022/04/15 09:24:04;;;;;;;8.70;2.80;;;;;;;;;;5038834;28;20046;-71
2022/04/15 09:26:30;;;;;;;9.55;3.38;;;;;;;;;;5038698;28;20041;-71
2022/04/15 09:28:56;;;;;;;8.82;2.63;;;;;;;;;;5038806;28;20093;-72
2022/04/15 09:31:23;;;;;;;8.90;2.85;;;;;;;;;;5038526;28;20052;-72
2022/04/15 09:33:55;;;;;;;6.40;2.75;;;;;;;;;;5038822;28;20060;-72
2022/04/15 09:36:35;;;;;;;5.72;3.10;;;;;;;;;;5038714;28;20057;-72
2022/04/15 09:39:10;;;;;;;10.80;3.08;;;;;;;;;;5038712;28;20091;-72
2022/04/15 09:41:36;;;;;;;8.82;2.70;;;;;;;;;;5038257;28;20038;-72
2022/04/15 09:44:02;;;;;;;6.32;2.78;;;;;;;;;;5038410;28;20102;-72
2022/04/15 09:46:30;;;;;;;12.55;3.33;;;;;;;;;;5038165;28;20030;-72
2022/04/15 09:49:16;;;;;;;8.20;2.70;;;;;;;;;;5038000;28;20089;-72
2022/04/15 09:51:51;;;;;;;8.57;2.72;;;;;;;;;;5038622;28;20118;-72
2022/04/15 09:54:25;;;;;;;8.13;3.05;;;;;;;;;;5053830;28;20064;-72
2022/04/15 09:56:55;;;;;;;7.13;3.15;;;;;;;;;;5038051;28;20022;-72
2022/04/15 09:59:22;;;;;;;15.48;3.40;;;;;;;;;;5032104;28;20076;-70
2022/04/15 10:01:49;;;;;;;8.50;3.28;;;;;;;;;;5036573;28;20038;-72
2022/04/15 10:04:15;;;;;;;9.48;3.30;;;;;;;;;;5034178;28;20022;-71
2022/04/15 10:06:42;;;;;;;8.85;3.00;;;;;;;;;;5041038;28;20022;-72
2022/04/15 10:09:15;;;;;;;9.32;3.15;;;;;;;;;;5034444;28;20026;-70
2022/04/15 10:11:47;;;;;;;10.43;3.22;;;;;;;;;;5035231;28;20037;-73
2022/04/15 10:14:14;;;;;;;7.25;2.63;;;;;;;;;;5031969;28;20026;-70
2022/04/15 10:16:42;;;;;;;5.38;2.90;;;;;;;;;;5030628;28;20026;-70
2022/04/15 10:19:08;;;;;;;9.57;2.83;;;;;;;;;;5026495;28;20030;-72
2022/04/15 10:21:41;;;;;;;8.88;3.35;;;;;;;;;;5029312;28;20057;-72
2022/04/15 10:24:10;;;;;;;9.20;2.60;;;;;;;;;;5037047;28;20041;-68
2022/04/15 10:26:44;;;;;;;9.60;3.13;;;;;;;;;;5037961;28;20030;-71
2022/04/15 10:29:10;;;;;;;6.70;2.65;;;;;;;;;;5032571;28;20092;-72
2022/04/15 10:31:46;;;;;;;6.30;3.00;;;;;;;;;;5037765;28;20056;-71
2022/04/15 10:34:16;;;;;;;15.13;3.00;;;;;;;;;;5055201;28;20037;-72
2022/04/15 10:36:45;;;;;;;6.28;2.55;;;;;;;;;;5040084;28;20057;-70
2022/04/15 10:39:12;;;;;;;6.35;2.70;;;;;;;;;;5039151;28;20056;-70
2022/04/15 10:41:41;;;;;;;5.15;2.67;;;;;;;;;;5041246;28;20117;-71
2022/04/15 10:44:10;;;;;;;8.23;2.95;;;;;;;;;;5033414;28;20042;-71
2022/04/15 10:46:37;;;;;;;15.65;3.67;;;;;;;;;;5024624;28;20053;-71
2022/04/15 10:49:18;;;;;;;6.93;3.20;;;;;;;;;;5016322;28;20129;-72
2022/04/15 10:51:45;;;;;;;6.47;2.80;;;;;;;;;;5031689;28;20137;-71
2022/04/15 10:54:30;;;;;;;9.07;3.13;;;;;;;;;;5016547;28;20046;-71
2022/04/15 10:57:01;;;;;;;9.48;3.00;;;;;;;;;;5016589;28;20448;-70
2022/04/15 11:02:17;;;;;;;7.93;2.90;;;;;;;;;;5017050;28;20053;-70
2022/04/15 11:04:47;;;;;;;6.53;2.92;;;;;;;;;;5023540;28;20050;-70
2022/04/15 11:07:36;;;;;;;8.05;2.80;;;;;;;;;;4998872;28;20133;-70
2022/04/15 11:10:02;;;;;;;6.78;2.90;;;;;;;;;;4999017;28;20047;-69
2022/04/15 11:12:29;;;;;;;4.90;2.38;;;;;;;;;;4996917;28;20126;-69
2022/04/15 11:14:55;;;;;;;8.82;3.00;;;;;;;;;;5000172;28;20078;-69
2022/04/15 11:17:37;;;;;;;5.03;2.60;;;;;;;;;;5015541;28;20125;-69
2022/04/15 11:20:05;;;;;;;8.07;2.95;;;;;;;;;;4996625;28;20058;-70
2022/04/15 11:22:31;;;;;;;7.70;2.92;;;;;;;;;;4996852;28;20046;-69
2022/04/15 11:24:57;;;;;;;5.53;2.70;;;;;;;;;;5001566;28;20092;-69
2022/04/15 11:27:23;;;;;;;4.35;2.50;;;;;;;;;;5016986;28;20038;-70
2022/04/15 11:29:51;;;;;;;8.77;2.60;;;;;;;;;;5014763;28;20046;-69
2022/04/15 11:32:17;;;;;;;5.18;2.45;;;;;;;;;;5015244;28;20548;-69
2022/04/15 11:34:43;;;;;;;3.53;2.50;;;;;;;;;;5018884;28;20077;-70
2022/04/15 11:37:09;;;;;;;5.47;2.97;;;;;;;;;;5016403;28;20042;-69
2022/04/15 11:39:36;;;;;;;5.50;2.85;;;;;;;;;;5015708;28;20049;-69
2022/04/15 11:42:07;;;;;;;4.57;3.05;;;;;;;;;;5014848;28;20041;-69
2022/04/15 11:44:33;;;;;;;6.82;2.80;;;;;;;;;;5014854;28;20053;-70
2022/04/15 11:47:16;;;;;;;4.70;2.83;;;;;;;;;;5005172;28;20073;-69
2022/04/15 11:49:42;;;;;;;5.13;2.90;;;;;;;;;;5015295;28;20515;-69
2022/04/15 11:52:08;;;;;;;5.32;2.90;;;;;;;;;;5015795;28;20052;-69
2022/04/15 11:54:35;;;;;;;4.72;3.00;;;;;;;;;;5013327;28;20046;-69
2022/04/15 11:57:03;;;;;;;5.28;2.95;;;;;;;;;;5010286;28;20066;-69
2022/04/15 11:59:36;;;;;;;6.13;3.10;;;;;;;;;;5014156;28;20420;-68
2022/04/15 12:02:02;;;;;;;6.38;3.20;;;;;;;;;;5015713;28;20100;-70
2022/04/15 12:04:28;;;;;;;6.03;2.88;;;;;;;;;;5012797;28;20073;-70
2022/04/15 12:06:54;;;;;;;7.93;2.95;;;;;;;;;;5015396;28;20080;-70
2022/04/15 12:09:20;;;;;;;5.13;3.17;;;;;;;;;;5015542;28;20060;-69
2022/04/15 12:11:47;;;;;;;7.57;3.40;;;;;;;;;;5014856;28;20046;-69
2022/04/15 12:14:13;;;;;;;6.40;3.15;;;;;;;;;;5014650;28;20448;-70
2022/04/15 12:16:40;;;;;;;5.10;2.95;;;;;;;;;;5014373;28;20498;-70
2022/04/15 12:19:07;;;;;;;5.45;2.72;;;;;;;;;;5014100;28;20516;-70
2022/04/15 12:21:33;;;;;;;8.15;3.13;;;;;;;;;;5020725;28;20519;-69
2022/04/15 12:24:20;;;;;;;7.07;3.30;;;;;;;;;;5014480;28;20038;-70
2022/04/15 12:26:50;;;;;;;4.97;2.75;;;;;;;;;;4994267;28;20050;-70
2022/04/15 12:32:15;;;;;;;4.80;3.05;;;;;;;;;;5007754;28;20046;-70
2022/04/15 12:34:42;;;;;;;3.92;2.70;;;;;;;;;;5014728;28;20383;-70
2022/04/15 12:37:28;;;;;;;3.80;2.72;;;;;;;;;;5018257;28;20041;-70
2022/04/15 12:39:54;;;;;;;4.55;3.10;;;;;;;;;;5032896;28;20052;-70
2022/04/15 12:42:27;;;;;;;6.53;2.90;;;;;;;;;;5022150;28;20046;-70
2022/04/15 12:44:53;;;;;;;4.85;2.78;;;;;;;;;;5014457;28;20042;-70
2022/04/15 12:47:19;;;;;;;4.72;2.97;;;;;;;;;;5013985;28;20508;-70
2022/04/15 12:49:45;;;;;;;4.38;3.13;;;;;;;;;;5014268;28;20493;-70
2022/04/15 12:52:12;;;;;;;5.78;2.85;;;;;;;;;;5012520;28;20050;-70
2022/04/15 12:54:57;;;;;;;4.88;2.85;;;;;;;;;;5014120;28;20057;-70
2022/04/15 12:57:27;;;;;;;7.55;3.25;;;;;;;;;;5013365;28;20058;-70
2022/04/15 12:59:52;;;;;;;9.43;3.15;;;;;;;;;;5014227;28;20038;-70
2022/04/15 13:02:18;;;;;;;6.07;3.20;;;;;;;;;;5012597;28;20042;-70
2022/04/15 13:04:52;;;;;;;7.10;3.20;;;;;;;;;;5013938;28;20078;-70
2022/04/15 13:07:19;;;;;;;5.60;2.97;;;;;;;;;;5014220;28;20053;-70
2022/04/15 13:09:45;;;;;;;12.73;3.30;;;;;;;;;;5012656;28;20044;-70
2022/04/15 13:12:11;;;;;;;15.88;4.65;;;;;;;;;;5013702;28;20046;-70
2022/04/15 13:14:37;;;;;;;12.65;4.00;;;;;;;;;;5014053;28;20054;-70
2022/04/15 13:17:04;;;;;;;20.08;3.97;;;;;;;;;;5013500;28;20400;-70
2022/04/15 13:19:30;;;;;;;17.65;4.18;;;;;;;;;;5013770;28;20124;-70
2022/04/15 13:21:56;;;;;;;19.60;4.68;;;;;;;;;;5013864;28;20041;-71
2022/04/15 13:24:22;;;;;;;17.65;4.03;;;;;;;;;;5013877;28;20042;-70
2022/04/15 13:26:48;;;;;;;17.73;4.47;;;;;;;;;;5013551;28;20136;-70
2022/04/15 13:29:14;;;;;;;15.98;3.88;;;;;;;;;;5013831;28;20128;-70
2022/04/15 13:31:40;;;;;;;12.35;3.80;;;;;;;;;;5013796;28;20045;-70
2022/04/15 13:34:06;;;;;;;10.48;4.05;;;;;;;;;;5013243;28;20503;-70
2022/04/15 13:36:32;;;;;;;9.85;3.92;;;;;;;;;;5013557;28;20042;-70
2022/04/15 13:38:58;;;;;;;8.10;3.53;;;;;;;;;;5013793;28;20246;-70
2022/04/15 13:41:26;;;;;;;8.90;3.75;;;;;;;;;;5013197;28;20045;-69
2022/04/15 13:43:53;;;;;;;12.23;3.80;;;;;;;;;;5013532;28;20520;-69
2022/04/15 13:46:19;;;;;;;11.32;4.00;;;;;;;;;;5013179;28;20497;-69
2022/04/15 13:48:46;;;;;;;12.23;4.03;;;;;;;;;;5013125;28;20057;-69
2022/04/15 13:51:12;;;;;;;6.03;3.40;;;;;;;;;;5013484;28;20050;-68
2022/04/15 13:56:37;;;;;;;7.28;3.28;;;;;;;;;;5013545;28;20042;-69
2022/04/15 13:59:10;;;;;;;11.52;3.60;;;;;;;;;;5013517;28;20497;-69
2022/04/15 14:01:39;;;;;;;16.10;5.32;;;;;;;;;;5013116;28;20066;-69
2022/04/15 14:04:10;;;;;;;13.38;4.88;;;;;;;;;;5015420;28;20042;-69
2022/04/15 14:06:46;;;;;;;8.82;4.07;;;;;;;;;;5020737;28;20052;-68
2022/04/15 14:09:12;;;;;;;8.30;4.13;;;;;;;;;;5022193;28;20049;-68
2022/04/15 14:11:39;;;;;;;9.80;3.75;;;;;;;;;;5019698;28;20042;-68
2022/04/15 14:14:06;;;;;;;7.88;3.67;;;;;;;;;;5020047;28;20046;-68
2022/04/15 14:16:32;;;;;;;7.72;3.50;;;;;;;;;;5019797;28;20081;-69
2022/04/15 14:18:59;;;;;;;8.38;3.50;;;;;;;;;;5019918;28;20069;-68
2022/04/15 14:21:26;;;;;;;7.82;3.33;;;;;;;;;;5019761;28;20053;-69
2022/04/15 14:23:52;;;;;;;9.57;3.53;;;;;;;;;;5019912;28;20038;-69
2022/04/15 14:26:18;;;;;;;10.88;3.25;;;;;;;;;;5018200;28;20044;-69
2022/04/15 14:28:45;;;;;;;9.15;4.35;;;;;;;;;;5011806;28;20429;-68
2022/04/15 14:31:12;;;;;;;7.55;3.95;;;;;;;;;;5001085;28;20541;-69
2022/04/15 14:33:39;;;;;;;7.18;3.45;;;;;;;;;;5019798;28;20120;-69
2022/04/15 14:36:05;;;;;;;9.32;3.58;;;;;;;;;;5019376;28;20054;-69
2022/04/15 14:38:32;;;;;;;8.15;3.42;;;;;;;;;;5019696;28;20133;-69
2022/04/15 14:41:04;;;;;;;7.53;3.60;;;;;;;;;;5019494;28;20042;-69
2022/04/15 14:43:30;;;;;;;6.07;3.30;;;;;;;;;;5019966;28;20046;-70
2022/04/15 14:45:56;;;;;;;4.97;3.10;;;;;;;;;;5012130;28;20050;-68
2022/04/15 14:48:22;;;;;;;8.00;3.25;;;;;;;;;;5019659;28;20130;-68
2022/04/15 14:50:48;;;;;;;7.03;3.50;;;;;;;;;;5018859;28;20179;-68
2022/04/15 14:53:15;;;;;;;7.93;3.50;;;;;;;;;;5019554;28;20076;-68